createdAt,value
2023-04-07T00:00:28.174Z,9.18
2023-04-07T00:02:54.749Z,10.18
2023-04-07T00:05:21.458Z,8.65
2023-04-07T00:07:55.853Z,8.27
2023-04-07T00:10:23.657Z,9.07
2023-04-07T00:12:50.250Z,9.30
2023-04-07T00:15:16.742Z,9.15
2023-04-07T00:17:43.316Z,9.20
2023-04-07T00:20:10.207Z,9.93
2023-04-07T00:22:36.668Z,9.50
2023-04-07T00:25:03.206Z,9.10
2023-04-07T00:27:29.620Z,9.88
2023-04-07T00:29:56.347Z,7.80
2023-04-07T00:32:24.354Z,7.95
2023-04-07T00:34:50.991Z,7.97
2023-04-07T00:37:17.486Z,7.88
2023-04-07T00:39:43.982Z,7.70
2023-04-07T00:42:10.925Z,7.40
2023-04-07T00:44:37.434Z,7.70
2023-04-07T00:47:04.395Z,7.25
2023-04-07T00:49:31.788Z,7.75
2023-04-07T00:51:58.656Z,7.15
2023-04-07T00:54:25.433Z,6.82
2023-04-07T00:56:53.471Z,8.00
2023-04-07T00:59:20.070Z,8.60
2023-04-07T01:01:59.154Z,8.55
2023-04-07T01:04:33.247Z,7.25
2023-04-07T01:07:05.348Z,7.88
2023-04-07T01:09:37.645Z,12.00
2023-04-07T01:12:18.701Z,7.60
2023-04-07T01:14:52.117Z,17.02
2023-04-07T01:17:19.470Z,10.25
2023-04-07T01:19:52.672Z,7.03
2023-04-07T01:22:24.303Z,7.28
2023-04-07T01:25:11.323Z,10.05
2023-04-07T01:28:10.593Z,8.93
2023-04-07T01:30:40.452Z,8.50
2023-04-07T01:33:07.624Z,8.45
2023-04-07T01:35:35.858Z,8.48
2023-04-07T01:38:03.333Z,7.72
2023-04-07T01:40:30.087Z,7.57
2023-04-07T01:42:59.941Z,7.70
2023-04-07T01:45:27.634Z,6.22
2023-04-07T01:47:55.230Z,6.72
2023-04-07T01:50:22.165Z,7.43
2023-04-07T01:52:48.806Z,7.07
2023-04-07T01:55:15.603Z,7.00
2023-04-07T01:57:42.153Z,7.15
2023-04-07T02:00:08.986Z,6.35
2023-04-07T02:02:37.017Z,6.70
2023-04-07T02:05:06.021Z,6.22
2023-04-07T02:07:41.328Z,7.38
2023-04-07T02:10:11.395Z,6.60
2023-04-07T02:12:38.231Z,6.55
2023-04-07T02:15:08.746Z,6.93
2023-04-07T02:17:37.906Z,6.60
2023-04-07T02:20:08.971Z,6.35
2023-04-07T02:22:35.856Z,7.07
2023-04-07T02:25:02.254Z,5.85
2023-04-07T02:27:28.707Z,6.22
2023-04-07T02:29:55.394Z,7.35
2023-04-07T02:32:21.828Z,6.55
2023-04-07T02:34:48.204Z,6.88
2023-04-07T02:37:14.732Z,7.60
2023-04-07T02:39:41.540Z,7.85
2023-04-07T02:42:07.910Z,8.00
2023-04-07T02:44:34.344Z,8.52
2023-04-07T02:47:00.753Z,8.05
2023-04-07T02:49:27.180Z,7.85
2023-04-07T02:51:53.574Z,7.82
2023-04-07T02:54:20.015Z,8.70
2023-04-07T02:56:46.401Z,8.43
2023-04-07T02:59:12.787Z,7.80
2023-04-07T03:01:40.402Z,8.32
2023-04-07T03:04:07.011Z,7.78
2023-04-07T03:06:34.044Z,9.02
2023-04-07T03:09:00.447Z,9.30
2023-04-07T03:11:27.153Z,10.20
2023-04-07T03:13:53.819Z,9.13
2023-04-07T03:16:20.617Z,10.68
2023-04-07T03:18:47.061Z,9.35
2023-04-07T03:21:13.510Z,9.48
2023-04-07T03:23:40.073Z,9.27
2023-04-07T03:26:06.713Z,9.55
2023-04-07T03:28:33.150Z,8.07
2023-04-07T03:30:59.635Z,8.07
2023-04-07T03:33:26.050Z,7.40
2023-04-07T03:35:52.519Z,8.60
2023-04-07T03:38:18.997Z,7.90
2023-04-07T03:40:45.452Z,8.40
2023-04-07T03:43:14.994Z,9.55
2023-04-07T03:45:42.175Z,9.68
2023-04-07T03:48:12.236Z,7.85
2023-04-07T03:50:39.977Z,8.75
2023-04-07T03:53:06.750Z,9.85
2023-04-07T03:55:33.997Z,9.05
2023-04-07T03:58:00.618Z,8.75
2023-04-07T04:00:27.395Z,9.02
2023-04-07T04:02:53.948Z,8.52
2023-04-07T04:05:20.524Z,8.07
2023-04-07T04:07:46.982Z,8.88
2023-04-07T04:10:13.500Z,9.10
2023-04-07T04:12:41.622Z,10.27
2023-04-07T04:15:08.593Z,9.55
2023-04-07T04:17:35.151Z,10.70
2023-04-07T04:20:01.702Z,10.90
2023-04-07T04:22:28.180Z,9.88
2023-04-07T04:24:54.587Z,9.80
2023-04-07T04:27:21.171Z,10.05
2023-04-07T04:29:48.784Z,9.25
2023-04-07T04:32:15.333Z,10.20
2023-04-07T04:34:42.150Z,10.55
2023-04-07T04:37:08.606Z,10.32
2023-04-07T04:39:35.078Z,9.55
2023-04-07T04:42:02.055Z,10.15
2023-04-07T04:44:30.089Z,9.40
2023-04-07T04:46:56.681Z,8.65
2023-04-07T04:49:23.151Z,9.00
2023-04-07T04:51:49.606Z,10.02
2023-04-07T04:54:16.709Z,9.57
2023-04-07T04:56:43.174Z,9.55
2023-04-07T04:59:09.633Z,11.27
2023-04-07T05:01:36.063Z,10.80
2023-04-07T05:04:02.618Z,10.45
2023-04-07T05:06:29.237Z,10.52
2023-04-07T05:08:55.717Z,10.15
2023-04-07T05:11:22.281Z,9.75
2023-04-07T05:13:48.683Z,9.95
2023-04-07T05:16:15.276Z,10.20
2023-04-07T05:18:41.741Z,10.30
2023-04-07T05:21:08.226Z,8.35
2023-04-07T05:23:35.765Z,9.00
2023-04-07T05:26:02.265Z,10.45
2023-04-07T05:28:28.657Z,9.45
2023-04-07T05:30:55.166Z,9.15
2023-04-07T05:33:21.564Z,9.20
2023-04-07T05:35:48.471Z,8.15
2023-04-07T05:38:16.648Z,10.27
2023-04-07T05:40:43.083Z,9.98
2023-04-07T05:43:09.561Z,10.05
2023-04-07T05:45:36.152Z,9.85
2023-04-07T05:48:02.587Z,9.20
2023-04-07T05:50:29.122Z,11.18
2023-04-07T05:52:55.585Z,11.02
2023-04-07T05:55:22.032Z,9.27
2023-04-07T05:57:49.316Z,9.20
2023-04-07T06:00:16.051Z,10.85
2023-04-07T06:02:43.687Z,10.23
2023-04-07T06:05:10.597Z,8.90
2023-04-07T06:07:37.155Z,10.68
2023-04-07T06:10:03.812Z,10.65
2023-04-07T06:12:30.244Z,11.20
2023-04-07T06:14:56.685Z,11.00
2023-04-07T06:17:23.455Z,10.18
2023-04-07T06:19:50.038Z,9.40
2023-04-07T06:22:16.480Z,9.35
2023-04-07T06:24:42.899Z,14.55
2023-04-07T06:27:09.368Z,14.27
2023-04-07T06:29:36.607Z,14.63
2023-04-07T06:32:03.094Z,12.95
2023-04-07T06:34:29.626Z,12.95
2023-04-07T06:36:57.391Z,12.77
2023-04-07T06:39:27.040Z,12.20
2023-04-07T06:41:53.749Z,12.23
2023-04-07T06:44:20.156Z,12.10
2023-04-07T06:46:49.394Z,11.80
2023-04-07T06:49:16.499Z,14.57
2023-04-07T06:51:42.880Z,15.68
2023-04-07T06:54:12.853Z,15.73
2023-04-07T06:56:43.366Z,15.70
2023-04-07T06:59:10.000Z,16.17
2023-04-07T07:01:37.705Z,19.02
2023-04-07T07:04:06.160Z,15.30
2023-04-07T07:06:32.895Z,16.70
2023-04-07T07:09:00.322Z,17.88
2023-04-07T07:11:27.237Z,14.75
2023-04-07T07:13:53.599Z,16.15
2023-04-07T07:16:20.393Z,15.30
2023-04-07T07:18:46.868Z,16.33
2023-04-07T07:21:13.423Z,15.50
2023-04-07T07:23:39.812Z,14.73
2023-04-07T07:26:06.449Z,15.13
2023-04-07T07:28:32.835Z,14.75
2023-04-07T07:30:59.250Z,17.38
2023-04-07T07:33:26.258Z,15.15
2023-04-07T07:35:52.728Z,16.10
2023-04-07T07:38:19.512Z,15.82
2023-04-07T07:40:47.104Z,15.93
2023-04-07T07:43:13.564Z,15.52
2023-04-07T07:45:39.965Z,14.85
2023-04-07T07:48:06.441Z,14.05
2023-04-07T07:50:32.868Z,13.73
2023-04-07T07:52:59.314Z,15.35
2023-04-07T07:55:25.806Z,14.50
2023-04-07T07:57:52.230Z,15.07
2023-04-07T08:00:18.815Z,13.20
2023-04-07T08:02:45.314Z,14.25
2023-04-07T08:05:12.771Z,12.13
2023-04-07T08:07:39.440Z,15.73
2023-04-07T08:10:06.424Z,18.20
2023-04-07T08:12:32.822Z,19.13
2023-04-07T08:14:59.217Z,13.10
2023-04-07T08:17:25.799Z,12.95
2023-04-07T08:19:52.298Z,13.02
2023-04-07T08:22:20.967Z,11.30
2023-04-07T08:24:47.910Z,12.07
2023-04-07T08:27:14.336Z,13.77
2023-04-07T08:29:40.769Z,11.80
2023-04-07T08:32:07.229Z,12.50
2023-04-07T08:34:33.683Z,12.40
2023-04-07T08:37:00.203Z,12.38
2023-04-07T08:39:26.851Z,9.25
2023-04-07T08:41:54.129Z,10.57
2023-04-07T08:44:22.648Z,10.93
2023-04-07T08:46:51.176Z,11.07
2023-04-07T08:49:17.936Z,8.85
2023-04-07T08:51:48.382Z,10.50
2023-04-07T08:54:18.986Z,12.70
2023-04-07T08:56:45.728Z,12.27
2023-04-07T08:59:14.054Z,12.80
2023-04-07T09:01:41.461Z,13.25
2023-04-07T09:04:09.517Z,11.85
2023-04-07T09:06:36.754Z,8.60
2023-04-07T09:09:05.890Z,11.65
2023-04-07T09:11:38.794Z,9.43
2023-04-07T09:14:05.674Z,11.05
2023-04-07T09:16:32.482Z,10.90
2023-04-07T09:18:59.324Z,10.98
2023-04-07T09:21:27.078Z,12.55
2023-04-07T09:23:53.576Z,9.30
2023-04-07T09:26:24.306Z,9.20
2023-04-07T09:29:02.788Z,9.02
2023-04-07T09:31:48.578Z,8.73
2023-04-07T09:34:26.119Z,9.85
2023-04-07T09:36:52.553Z,10.30
2023-04-07T09:39:19.552Z,9.35
2023-04-07T09:41:45.991Z,8.38
2023-04-07T09:44:12.685Z,10.77
2023-04-07T09:46:58.737Z,11.77
2023-04-07T09:49:26.166Z,8.32
2023-04-07T09:52:04.894Z,10.52
2023-04-07T09:54:41.676Z,8.13
2023-04-07T09:57:09.625Z,7.78
2023-04-07T09:59:42.476Z,7.93
2023-04-07T10:02:09.255Z,7.75
2023-04-07T10:04:36.068Z,10.55
2023-04-07T10:07:03.671Z,8.40
2023-04-07T10:09:30.442Z,7.65
2023-04-07T10:11:58.205Z,7.75
2023-04-07T10:14:30.934Z,7.53
2023-04-07T10:16:59.372Z,7.03
2023-04-07T10:19:26.914Z,7.85
2023-04-07T10:21:53.985Z,7.63
2023-04-07T10:24:32.424Z,6.88
2023-04-07T10:27:03.337Z,7.15
2023-04-07T10:29:31.660Z,5.70
2023-04-07T10:31:59.511Z,6.13
2023-04-07T10:35:05.173Z,9.25
2023-04-07T10:37:33.422Z,7.72
2023-04-07T10:40:18.949Z,6.25
2023-04-07T10:42:49.744Z,5.22
2023-04-07T10:45:16.278Z,7.30
2023-04-07T10:47:57.860Z,6.30
2023-04-07T10:50:25.163Z,5.80
2023-04-07T10:53:08.334Z,6.28
2023-04-07T10:55:36.793Z,6.57
2023-04-07T10:58:22.848Z,6.10
2023-04-07T11:01:07.849Z,5.90
2023-04-07T11:03:37.002Z,5.95
2023-04-07T11:06:10.575Z,5.93
2023-04-07T11:08:42.147Z,6.43
2023-04-07T11:11:10.195Z,6.88
2023-04-07T11:13:50.269Z,5.95
2023-04-07T11:16:18.625Z,6.13
2023-04-07T11:18:47.608Z,6.13
2023-04-07T11:21:18.482Z,8.88
2023-04-07T11:23:46.688Z,6.50
2023-04-07T11:26:14.529Z,6.45
2023-04-07T11:28:54.164Z,7.00
2023-04-07T11:31:24.954Z,6.38
2023-04-07T11:33:55.744Z,6.13
2023-04-07T11:36:28.923Z,6.28
2023-04-07T11:38:57.504Z,5.40
2023-04-07T11:41:26.040Z,7.05
2023-04-07T11:44:08.766Z,5.53
2023-04-07T11:46:36.116Z,6.47
2023-04-07T11:49:13.392Z,5.63
2023-04-07T11:51:40.803Z,5.68
2023-04-07T11:54:07.257Z,5.82
2023-04-07T11:56:47.723Z,5.97
2023-04-07T11:59:22.902Z,4.80
2023-04-07T12:01:50.730Z,5.68
2023-04-07T12:04:17.725Z,5.43
2023-04-07T12:06:46.487Z,6.20
2023-04-07T12:09:27.960Z,5.55
2023-04-07T12:11:54.435Z,5.47
2023-04-07T12:14:20.996Z,5.63
2023-04-07T12:16:47.478Z,5.45
2023-04-07T12:19:13.951Z,5.57
2023-04-07T12:21:40.922Z,5.53
2023-04-07T12:24:07.357Z,5.65
2023-04-07T12:26:33.788Z,7.18
2023-04-07T12:29:05.289Z,6.00
2023-04-07T12:31:32.904Z,5.10
2023-04-07T12:33:59.641Z,4.57
2023-04-07T12:36:27.611Z,5.32
2023-04-07T12:38:54.694Z,5.57
2023-04-07T12:41:21.194Z,4.82
2023-04-07T12:43:47.669Z,8.07
2023-04-07T12:46:14.282Z,5.05
2023-04-07T12:48:43.419Z,7.40
2023-04-07T12:51:09.928Z,4.47
2023-04-07T12:53:36.769Z,4.60
2023-04-07T12:56:03.309Z,4.70
2023-04-07T12:58:29.891Z,4.88
2023-04-07T13:00:58.684Z,6.30
2023-04-07T13:03:25.347Z,5.18
2023-04-07T13:05:54.178Z,5.80
2023-04-07T13:08:21.476Z,4.97
2023-04-07T13:10:47.980Z,4.90
2023-04-07T13:13:14.496Z,4.47
2023-04-07T13:15:41.326Z,6.18
2023-04-07T13:18:08.209Z,4.85
2023-04-07T13:20:34.772Z,4.65
2023-04-07T13:23:07.587Z,4.43
2023-04-07T13:25:36.273Z,4.88
2023-04-07T13:28:02.749Z,4.57
2023-04-07T13:30:29.160Z,4.88
2023-04-07T13:32:55.629Z,4.80
2023-04-07T13:35:22.208Z,9.02
2023-04-07T13:37:48.679Z,6.18
2023-04-07T13:40:15.368Z,7.00
2023-04-07T13:42:42.014Z,5.25
2023-04-07T13:45:08.891Z,7.03
2023-04-07T13:47:35.518Z,4.85
2023-04-07T13:50:03.116Z,4.93
2023-04-07T13:52:30.040Z,5.68
2023-04-07T13:54:57.728Z,5.68
2023-04-07T13:57:24.263Z,5.63
2023-04-07T13:59:54.282Z,5.78
2023-04-07T14:02:21.178Z,4.15
2023-04-07T14:04:47.835Z,5.35
2023-04-07T14:07:14.279Z,5.38
2023-04-07T14:09:42.708Z,5.95
2023-04-07T14:12:09.490Z,5.13
2023-04-07T14:14:37.568Z,5.13
2023-04-07T14:17:04.369Z,4.75
2023-04-07T14:19:31.165Z,4.22
2023-04-07T14:21:57.609Z,4.78
2023-04-07T14:24:24.356Z,3.83
2023-04-07T14:26:51.215Z,3.80
2023-04-07T14:29:17.777Z,4.20
2023-04-07T14:31:45.207Z,4.45
2023-04-07T14:34:14.533Z,5.00
2023-04-07T14:36:40.968Z,4.63
2023-04-07T14:39:07.452Z,4.97
2023-04-07T14:41:33.965Z,5.05
2023-04-07T14:44:00.405Z,5.20
2023-04-07T14:46:27.498Z,4.82
2023-04-07T14:48:53.995Z,4.82
2023-04-07T14:51:21.316Z,5.93
2023-04-07T14:53:53.403Z,4.82
2023-04-07T14:56:21.248Z,5.65
2023-04-07T14:58:47.677Z,7.50
2023-04-07T15:01:14.244Z,7.22
2023-04-07T15:03:40.831Z,5.15
2023-04-07T15:06:11.724Z,6.63
2023-04-07T15:08:38.344Z,9.60
2023-04-07T15:11:06.232Z,8.10
2023-04-07T15:13:32.635Z,8.40
2023-04-07T15:16:09.267Z,7.50
2023-04-07T15:18:35.956Z,7.20
2023-04-07T15:21:02.390Z,7.15
2023-04-07T15:23:28.967Z,7.07
2023-04-07T15:25:57.016Z,6.80
2023-04-07T15:28:23.818Z,7.13
2023-04-07T15:30:50.496Z,7.53
2023-04-07T15:33:17.553Z,8.10
2023-04-07T15:35:44.641Z,7.07
2023-04-07T15:38:11.458Z,6.72
2023-04-07T15:40:38.900Z,7.68
2023-04-07T15:43:06.773Z,5.88
2023-04-07T15:45:33.385Z,6.47
2023-04-07T15:47:59.868Z,6.32
2023-04-07T15:50:28.027Z,3.78
2023-04-07T15:52:54.443Z,3.53
2023-04-07T15:55:20.871Z,2.70
2023-04-07T15:57:47.292Z,2.60
2023-04-07T16:00:14.551Z,3.47
2023-04-07T16:02:41.793Z,3.40
2023-04-07T16:05:08.502Z,3.08
2023-04-07T16:07:34.995Z,3.17
2023-04-07T16:10:01.422Z,4.30
2023-04-07T16:12:27.827Z,3.78
2023-04-07T16:14:54.446Z,6.10
2023-04-07T16:17:21.092Z,3.25
2023-04-07T16:19:47.524Z,3.25
2023-04-07T16:22:13.998Z,4.35
2023-04-07T16:24:40.507Z,4.43
2023-04-07T16:27:06.944Z,2.97
2023-04-07T16:29:33.363Z,2.88
2023-04-07T16:31:59.951Z,3.28
2023-04-07T16:34:26.402Z,6.50
2023-04-07T16:36:52.821Z,6.43
2023-04-07T16:39:19.291Z,11.90
2023-04-07T16:41:45.787Z,8.07
2023-04-07T16:44:12.261Z,18.88
2023-04-07T16:46:38.682Z,24.35
2023-04-07T16:49:05.411Z,24.90
2023-04-07T16:51:31.855Z,6.28
2023-04-07T16:53:58.373Z,17.27
2023-04-07T16:56:25.293Z,6.18
2023-04-07T16:58:51.752Z,6.80
2023-04-07T17:01:18.700Z,5.10
2023-04-07T17:03:48.634Z,4.97
2023-04-07T17:06:16.466Z,4.85
2023-04-07T17:08:43.895Z,19.73
2023-04-07T17:11:13.147Z,3.60
2023-04-07T17:13:40.275Z,16.05
2023-04-07T17:16:07.239Z,5.20
2023-04-07T17:18:33.888Z,31.08
2023-04-07T17:21:00.573Z,31.45
2023-04-07T17:23:28.308Z,13.07
2023-04-07T17:25:54.953Z,9.85
2023-04-07T17:28:21.414Z,6.97
2023-04-07T17:30:47.923Z,4.15
2023-04-07T17:33:14.348Z,5.75
2023-04-07T17:35:40.760Z,3.90
2023-04-07T17:38:07.347Z,4.07
2023-04-07T17:40:34.058Z,6.72
2023-04-07T17:43:00.522Z,6.82
2023-04-07T17:45:27.004Z,7.38
2023-04-07T17:47:54.753Z,5.80
2023-04-07T17:50:21.240Z,11.35
2023-04-07T17:52:47.616Z,5.20
2023-04-07T17:55:14.083Z,5.57
2023-04-07T17:57:41.766Z,7.13
2023-04-07T18:00:08.995Z,5.45
2023-04-07T18:02:35.957Z,5.10
2023-04-07T18:05:03.275Z,4.70
2023-04-07T18:07:30.382Z,6.63
2023-04-07T18:09:57.910Z,8.05
2023-04-07T18:12:24.593Z,5.90
2023-04-07T18:14:51.025Z,5.78
2023-04-07T18:17:17.521Z,6.25
2023-04-07T18:19:44.266Z,4.65
2023-04-07T18:22:10.808Z,4.38
2023-04-07T18:24:37.255Z,4.57
2023-04-07T18:27:04.024Z,5.70
2023-04-07T18:29:33.283Z,8.40
2023-04-07T18:31:59.667Z,8.15
2023-04-07T18:34:26.223Z,8.20
2023-04-07T18:36:53.681Z,7.85
2023-04-07T18:39:20.097Z,11.90
2023-04-07T18:41:48.201Z,13.48
2023-04-07T18:44:15.083Z,12.60
2023-04-07T18:46:41.621Z,8.13
2023-04-07T18:49:08.365Z,7.90
2023-04-07T18:51:34.852Z,8.15
2023-04-07T18:54:01.320Z,7.88
2023-04-07T18:56:28.443Z,7.53
2023-04-07T18:58:54.898Z,7.07
2023-04-07T19:01:21.603Z,7.63
2023-04-07T19:03:48.834Z,8.35
2023-04-07T19:06:16.364Z,8.68
2023-04-07T19:08:43.006Z,8.32
2023-04-07T19:11:10.127Z,8.68
2023-04-07T19:13:36.637Z,7.90
2023-04-07T19:16:03.260Z,7.93
2023-04-07T19:18:31.613Z,7.53
2023-04-07T19:20:58.056Z,9.45
2023-04-07T19:23:24.473Z,8.45
2023-04-07T19:25:51.629Z,8.15
2023-04-07T19:28:18.164Z,11.25
2023-04-07T19:30:44.639Z,9.30
2023-04-07T19:33:11.760Z,8.90
2023-04-07T19:35:41.225Z,8.65
2023-04-07T19:38:07.738Z,7.88
2023-04-07T19:40:34.290Z,8.40
2023-04-07T19:43:00.708Z,7.45
2023-04-07T19:45:27.577Z,7.03
2023-04-07T19:47:54.517Z,7.88
2023-04-07T19:50:21.289Z,6.72
2023-04-07T19:52:47.727Z,6.13
2023-04-07T19:55:14.402Z,6.13
2023-04-07T19:57:41.069Z,6.00
2023-04-07T20:00:09.014Z,5.68
2023-04-07T20:02:36.774Z,5.72
2023-04-07T20:05:03.867Z,6.57
2023-04-07T20:07:31.365Z,5.22
2023-04-07T20:09:58.035Z,6.50
2023-04-07T20:12:24.656Z,7.50
2023-04-07T20:14:51.074Z,7.90
2023-04-07T20:17:17.574Z,8.45
2023-04-07T20:19:43.999Z,7.38
2023-04-07T20:22:10.403Z,7.78
2023-04-07T20:24:36.912Z,7.88
2023-04-07T20:27:03.378Z,7.38
2023-04-07T20:29:29.776Z,7.43
2023-04-07T20:31:56.245Z,8.57
2023-04-07T20:34:22.702Z,7.63
2023-04-07T20:36:49.247Z,5.95
2023-04-07T20:39:16.465Z,5.18
2023-04-07T20:41:44.985Z,6.32
2023-04-07T20:44:12.148Z,5.43
2023-04-07T20:46:38.684Z,4.90
2023-04-07T20:49:07.589Z,4.90
2023-04-07T20:51:36.527Z,5.75
2023-04-07T20:54:04.532Z,5.47
2023-04-07T20:56:31.609Z,6.93
2023-04-07T20:58:58.050Z,8.52
2023-04-07T21:01:24.582Z,7.03
2023-04-07T21:03:52.166Z,7.03
2023-04-07T21:06:18.772Z,9.20
2023-04-07T21:08:46.007Z,9.40
2023-04-07T21:11:12.450Z,7.95
2023-04-07T21:13:38.830Z,6.93
2023-04-07T21:16:05.685Z,8.50
2023-04-07T21:18:33.305Z,8.30
2023-04-07T21:20:59.858Z,8.32
2023-04-07T21:23:26.369Z,9.45
2023-04-07T21:25:52.737Z,8.13
2023-04-07T21:28:19.147Z,8.32
2023-04-07T21:30:45.745Z,7.07
2023-04-07T21:33:13.460Z,6.93
2023-04-07T21:35:39.946Z,6.63
2023-04-07T21:38:06.386Z,8.52
2023-04-07T21:40:32.837Z,7.63
2023-04-07T21:42:59.315Z,7.28
2023-04-07T21:45:25.796Z,7.63
2023-04-07T21:47:52.243Z,5.00
2023-04-07T21:50:18.825Z,5.97
2023-04-07T21:52:45.286Z,8.18
2023-04-07T21:55:11.782Z,6.85
2023-04-07T21:57:38.347Z,7.65
2023-04-07T22:00:08.980Z,7.72
2023-04-07T22:02:35.807Z,10.75
2023-04-07T22:05:02.395Z,10.95
2023-04-07T22:07:28.861Z,15.07
2023-04-07T22:09:55.660Z,13.68
2023-04-07T22:12:22.047Z,11.30
2023-04-07T22:14:48.566Z,15.48
2023-04-07T22:17:15.585Z,11.95
2023-04-07T22:19:42.282Z,12.23
2023-04-07T22:22:08.710Z,12.73
2023-04-07T22:24:35.441Z,16.08
2023-04-07T22:27:02.247Z,13.60
2023-04-07T22:29:28.775Z,13.93
2023-04-07T22:31:55.278Z,17.45
2023-04-07T22:34:21.925Z,15.38
2023-04-07T22:36:48.380Z,19.65
2023-04-07T22:39:14.815Z,24.33
2023-04-07T22:41:41.213Z,28.55
2023-04-07T22:44:07.706Z,32.42
2023-04-07T22:46:34.218Z,31.13
2023-04-07T22:49:00.738Z,32.42
2023-04-07T22:51:29.288Z,36.42
2023-04-07T22:53:55.702Z,29.35
2023-04-07T22:56:22.229Z,32.50
2023-04-07T22:58:48.735Z,33.85
2023-04-07T23:01:15.608Z,34.20
2023-04-07T23:03:42.481Z,30.27
2023-04-07T23:06:09.024Z,27.25
2023-04-07T23:08:35.558Z,24.08
2023-04-07T23:11:02.092Z,21.40
2023-04-07T23:13:28.547Z,19.35
2023-04-07T23:15:54.971Z,18.02
2023-04-07T23:18:21.385Z,19.85
2023-04-07T23:20:55.286Z,19.13
2023-04-07T23:23:22.152Z,15.68
2023-04-07T23:25:48.716Z,15.45
2023-04-07T23:28:15.452Z,15.27
2023-04-07T23:30:41.942Z,15.70
2023-04-07T23:33:08.448Z,15.05
2023-04-07T23:35:34.937Z,17.17
2023-04-07T23:38:01.531Z,17.08
2023-04-07T23:40:27.964Z,14.38
2023-04-07T23:42:54.462Z,12.45
2023-04-07T23:45:20.958Z,11.60
2023-04-07T23:47:47.398Z,10.98
2023-04-07T23:50:13.972Z,12.15
2023-04-07T23:52:40.950Z,10.70
2023-04-07T23:55:07.699Z,10.98
2023-04-07T23:57:34.158Z,10.98
